Time;durP1;ratioP1;P1;durP2;ratioP2;P2;SDS_P1;SDS_P2;PMS_P1;PMS_P2;Temp;Humidity;BMP_temperature;BMP_pressure;BME280_temperature;BME280_humidity;BME280_pressure;Samples;Min_cycle;Max_cycle;Signal;HPM_P1;HPM_P2
2022/01/17 00:01:19;;;;;;;34.90;18.90;;;;;;;-1.18;60.25;101066.39;105593;1270;59699;-75
2022/01/17 00:03:48;;;;;;;38.90;19.50;;;;;;;-1.17;59.72;101066.88;105567;1270;59554;-76
2022/01/17 00:06:17;;;;;;;39.10;18.40;;;;;;;-1.17;60.19;101065.67;105585;1270;72421;-76
2022/01/17 00:08:46;;;;;;;38.40;19.60;;;;;;;-1.12;59.78;101067.11;105578;1270;71256;-74
2022/01/17 00:11:17;;;;;;;33.10;17.00;;;;;;;-1.17;59.94;101068.23;105484;1271;68571;-70
2022/01/17 00:13:48;;;;;;;28.40;15.10;;;;;;;-1.18;60.04;101059.88;105498;1270;74128;-76
2022/01/17 00:16:28;;;;;;;35.40;17.00;;;;;;;-1.17;60.24;101055.41;105543;1270;59784;-73
2022/01/17 00:21:32;;;;;;;34.90;16.50;;;;;;;-1.13;59.90;101044.06;105489;1270;75551;-75
2022/01/17 00:24:01;;;;;;;32.40;15.80;;;;;;;-1.19;60.01;101048.10;105481;1270;72798;-74
2022/01/17 00:26:30;;;;;;;26.40;13.50;;;;;;;-1.23;60.54;101048.18;105498;1270;71387;-75
2022/01/17 00:29:00;;;;;;;27.60;14.40;;;;;;;-1.26;60.60;101043.98;105487;1270;74783;-79
2022/01/17 00:31:28;;;;;;;27.90;14.30;;;;;;;-1.27;60.50;101044.15;105419;1270;60899;-77
2022/01/17 00:33:58;;;;;;;23.70;12.30;;;;;;;-1.29;60.62;101042.32;105530;1270;62782;-78
2022/01/17 00:36:27;;;;;;;32.80;16.60;;;;;;;-1.34;61.34;101046.49;105502;1270;75393;-77
2022/01/17 00:38:55;;;;;;;29.40;14.50;;;;;;;-1.34;61.19;101042.91;105420;1272;72498;-78
2022/01/17 00:41:24;;;;;;;32.80;15.80;;;;;;;-1.35;61.29;101043.27;105475;1270;71574;-77
2022/01/17 00:43:55;;;;;;;28.40;14.30;;;;;;;-1.37;61.67;101044.34;105574;1270;74863;-77
2022/01/17 00:46:26;;;;;;;24.30;13.40;;;;;;;-1.38;61.57;101043.83;105608;1270;61968;-79
2022/01/17 00:48:55;;;;;;;32.60;14.80;;;;;;;-1.37;61.80;101044.16;105563;1270;59853;-78
2022/01/17 00:51:24;;;;;;;23.40;14.30;;;;;;;-1.38;61.58;101042.80;105633;1270;72636;-76
2022/01/17 00:53:54;;;;;;;31.70;14.40;;;;;;;-1.40;61.80;101037.21;105506;1270;71086;-76
2022/01/17 00:56:24;;;;;;;33.00;13.80;;;;;;;-1.38;61.58;101031.88;105421;1270;72006;-77
2022/01/17 00:58:53;;;;;;;29.20;13.80;;;;;;;-1.39;61.02;101027.27;105496;1269;75569;-76
2022/01/17 01:01:22;;;;;;;32.80;14.90;;;;;;;-1.43;61.33;101019.83;105538;1270;60734;-82
2022/01/17 01:03:51;;;;;;;25.20;13.60;;;;;;;-1.51;62.10;101015.71;105657;1270;60332;-75
2022/01/17 01:06:20;;;;;;;24.20;13.10;;;;;;;-1.56;62.59;101008.29;105142;1269;424879;-73
2022/01/17 01:08:49;;;;;;;29.90;14.60;;;;;;;-1.56;62.47;100998.05;105406;1270;73038;-72
2022/01/17 01:11:18;;;;;;;26.70;13.90;;;;;;;-1.58;62.82;101003.20;105431;1270;69769;-74
2022/01/17 01:13:47;;;;;;;29.70;14.00;;;;;;;-1.60;62.57;100998.25;105568;1269;73532;-73
2022/01/17 01:21:45;;;;;;;26.50;12.90;;;;;;;-1.68;62.56;100982.36;105456;1270;74322;-75
2022/01/17 01:29:56;;;;;;;24.20;12.20;;;;;;;-1.76;62.91;100962.01;105472;1270;75428;-73
2022/01/17 01:32:33;;;;;;;34.10;13.40;;;;;;;-1.75;62.97;100962.69;105438;1270;61568;-73
2022/01/17 01:35:08;;;;;;;24.90;13.90;;;;;;;-1.76;63.92;100963.20;105407;1270;61140;-73
2022/01/17 01:37:37;;;;;;;28.40;13.20;;;;;;;-1.79;63.48;100971.45;105416;1269;73692;-75
2022/01/17 01:40:07;;;;;;;26.70;14.60;;;;;;;-1.82;63.73;100970.98;105402;1270;70238;-75
2022/01/17 01:42:36;;;;;;;29.10;13.90;;;;;;;-1.82;63.68;100964.50;105320;1270;69003;-75
2022/01/17 01:45:07;;;;;;;25.60;13.20;;;;;;;-1.84;63.98;100964.55;105367;1270;72351;-74
2022/01/17 01:47:37;;;;;;;27.10;13.60;;;;;;;-1.88;64.19;100963.23;105266;1270;60010;-75
2022/01/17 01:50:08;;;;;;;26.00;12.80;;;;;;;-1.91;64.52;100959.36;105292;1270;60758;-75
2022/01/17 01:52:41;;;;;;;29.00;13.80;;;;;;;-1.96;65.05;100955.17;105357;1269;71829;-76
2022/01/17 01:55:13;;;;;;;25.80;13.60;;;;;;;-2.01;64.96;100949.80;105402;1270;70581;-75
2022/01/17 01:57:43;;;;;;;26.10;13.00;;;;;;;-2.08;64.98;100948.23;105447;1271;69948;-76
2022/01/17 02:00:15;;;;;;;30.60;13.70;;;;;;;-2.17;65.99;100942.56;105484;1270;74116;-76
2022/01/17 02:02:45;;;;;;;24.20;12.70;;;;;;;-2.23;66.35;100939.94;105369;1272;63276;-77
2022/01/17 02:05:15;;;;;;;27.10;12.40;;;;;;;-2.27;66.13;100937.60;105215;1273;60634;-73
2022/01/17 02:07:45;;;;;;;24.70;12.30;;;;;;;-2.28;66.14;100932.33;105836;1269;74609;-74
2022/01/17 02:10:15;;;;;;;26.10;13.40;;;;;;;-2.30;66.08;100928.61;105484;1270;70423;-74
2022/01/17 02:12:44;;;;;;;26.00;12.90;;;;;;;-2.32;66.22;100925.41;105477;1270;69949;-73
2022/01/17 02:15:17;;;;;;;29.30;16.40;;;;;;;-2.34;66.66;100920.64;105394;1272;72619;-73
2022/01/17 02:17:53;;;;;;;;;;;;;;;-2.35;66.86;100924.25;105479;1271;59655;-73
2022/01/17 02:20:42;;;;;;;25.00;12.30;;;;;;;-2.37;66.94;100924.29;105525;1270;61355;-75
2022/01/17 02:23:13;;;;;;;23.80;12.50;;;;;;;-2.37;67.02;100928.73;105495;1267;75050;-72
2022/01/17 02:25:43;;;;;;;23.30;12.40;;;;;;;-2.35;66.88;100924.94;105523;1271;70905;-72
2022/01/17 02:28:12;;;;;;;25.70;13.10;;;;;;;-2.35;67.10;100926.13;105461;1272;68905;-73
2022/01/17 02:30:41;;;;;;;25.70;13.20;;;;;;;-2.34;66.98;100923.89;105462;1271;72424;-73
2022/01/17 02:33:10;;;;;;;26.30;13.00;;;;;;;-2.34;66.28;100919.63;105494;1272;60610;-73
2022/01/17 02:35:40;;;;;;;25.30;12.70;;;;;;;-2.35;65.96;100919.99;105462;1271;59290;-73
2022/01/17 02:38:09;;;;;;;24.40;12.80;;;;;;;-2.34;65.78;100912.80;105521;1269;73841;-73
2022/01/17 02:40:38;;;;;;;22.90;11.60;;;;;;;-2.33;66.02;100911.59;105629;1270;72186;-70
2022/01/17 02:43:08;;;;;;;25.10;12.20;;;;;;;-2.31;66.27;100909.36;105612;1271;71296;-72
2022/01/17 02:48:24;;;;;;;22.80;12.90;;;;;;;-2.29;66.34;100915.29;105503;1272;60140;-74
2022/01/17 02:50:54;;;;;;;26.80;12.90;;;;;;;-2.28;66.50;100912.20;105543;1272;61652;-75
2022/01/17 02:53:24;;;;;;;22.70;11.60;;;;;;;-2.26;66.54;100908.42;105502;1272;72353;-74
2022/01/17 02:56:05;;;;;;;25.50;12.50;;;;;;;-2.26;65.73;100908.25;105530;1270;70867;-75
2022/01/17 02:58:34;;;;;;;24.00;12.40;;;;;;;-2.25;65.84;100907.72;105523;1272;72144;-73
2022/01/17 03:01:26;;;;;;;24.90;12.90;;;;;;;-2.20;65.43;100909.85;105529;1272;72600;-74
2022/01/17 03:03:57;;;;;;;25.20;12.70;;;;;;;-2.16;65.64;100910.96;105481;1272;59600;-75
2022/01/17 03:06:28;;;;;;;22.90;13.00;;;;;;;-2.09;65.33;100915.98;105511;1273;61533;-74
2022/01/17 03:08:57;;;;;;;24.30;13.40;;;;;;;-2.07;65.33;100909.61;105491;1272;73152;-74
2022/01/17 03:11:28;;;;;;;27.30;13.20;;;;;;;-2.03;65.33;100911.27;105464;1271;71066;-74
2022/01/17 03:13:58;;;;;;;24.80;12.80;;;;;;;-2.01;65.17;100909.69;105445;1272;70026;-75
2022/01/17 03:16:33;;;;;;;23.90;11.90;;;;;;;-2.03;65.32;100909.73;105436;1271;72831;-74
2022/01/17 03:19:02;;;;;;;28.90;13.20;;;;;;;-2.05;65.57;100909.06;105471;1272;59102;-74
2022/01/17 03:21:32;;;;;;;22.60;12.30;;;;;;;-2.06;65.76;100907.21;105372;1272;59867;-75
2022/01/17 03:24:01;;;;;;;22.40;12.20;;;;;;;-2.06;66.19;100903.11;105477;1272;73619;-76
2022/01/17 03:26:30;;;;;;;23.30;11.50;;;;;;;-2.06;66.30;100893.72;105461;1270;71203;-75
2022/01/17 03:29:02;;;;;;;23.10;11.10;;;;;;;-2.04;66.10;100894.05;105453;1271;69829;-72
2022/01/17 03:31:31;;;;;;;26.60;12.00;;;;;;;-2.02;66.14;100887.19;105626;1268;73312;-75
2022/01/17 03:34:00;;;;;;;25.90;12.50;;;;;;;-2.01;66.23;100884.27;105516;1272;59742;-76
2022/01/17 03:36:29;;;;;;;27.20;12.90;;;;;;;-1.99;66.80;100882.01;105480;1271;60205;-71
2022/01/17 03:38:58;;;;;;;23.10;12.90;;;;;;;-1.99;66.66;100879.10;105400;1272;73048;-76
2022/01/17 03:41:27;;;;;;;24.80;13.10;;;;;;;-1.99;66.90;100884.90;105471;1272;70731;-74
2022/01/17 03:43:56;;;;;;;25.20;12.90;;;;;;;-1.98;67.16;100886.09;105486;1272;68161;-75
2022/01/17 03:46:26;;;;;;;35.10;16.60;;;;;;;-2.01;67.08;100880.84;105480;1270;71844;-76
2022/01/17 03:48:56;;;;;;;27.50;14.20;;;;;;;-2.05;67.43;100873.23;105496;1269;60321;-76
2022/01/17 03:51:25;;;;;;;27.20;13.50;;;;;;;-2.08;67.33;100868.02;105471;1270;62376;-71
2022/01/17 03:53:54;;;;;;;27.20;12.80;;;;;;;-2.10;67.37;100864.46;105405;1273;72645;-76
2022/01/17 03:56:23;;;;;;;27.60;13.40;;;;;;;-2.15;67.59;100858.23;105358;1272;71841;-76
2022/01/17 03:58:52;;;;;;;28.50;13.30;;;;;;;-2.19;67.41;100858.81;105446;1270;70605;-78
2022/01/17 04:01:21;;;;;;;27.60;14.00;;;;;;;-2.22;67.96;100855.97;105392;1272;72245;-72
2022/01/17 04:03:50;;;;;;;29.60;14.60;;;;;;;-2.25;68.23;100850.89;105422;1272;59690;-77
2022/01/17 04:06:19;;;;;;;30.90;16.40;;;;;;;-2.25;67.79;100842.88;105446;1270;60292;-77
2022/01/17 04:08:48;;;;;;;34.70;17.60;;;;;;;-2.26;69.17;100843.40;105532;1270;75158;-68
2022/01/17 04:11:17;;;;;;;38.20;18.50;;;;;;;-2.28;69.46;100839.67;105473;1273;73002;-69
2022/01/17 04:13:47;;;;;;;38.70;16.90;;;;;;;-2.30;69.42;100837.34;105420;1271;72204;-72
2022/01/17 04:16:16;;;;;;;35.60;17.20;;;;;;;-2.34;69.64;100843.89;105473;1271;74337;-70
2022/01/17 04:18:45;;;;;;;35.90;17.10;;;;;;;-2.37;69.58;100840.69;105416;1270;59597;-69
2022/01/17 04:21:14;;;;;;;34.60;15.80;;;;;;;-2.38;69.68;100841.58;105454;1270;59595;-70
2022/01/17 04:23:43;;;;;;;32.90;16.10;;;;;;;-2.41;69.31;100843.48;105466;1270;73856;-69
2022/01/17 04:26:12;;;;;;;38.80;20.50;;;;;;;-2.43;69.65;100837.21;105481;1272;72106;-69
2022/01/17 04:28:41;;;;;;;37.80;17.90;;;;;;;-2.45;69.33;100832.29;105295;1273;69114;-69
2022/01/17 04:31:10;;;;;;;36.30;19.20;;;;;;;-2.48;69.60;100822.29;105443;1272;71671;-71
2022/01/17 04:33:39;;;;;;;37.90;18.60;;;;;;;-2.53;69.89;100822.38;105403;1272;61692;-69
2022/01/17 04:36:09;;;;;;;33.80;16.90;;;;;;;-2.58;69.91;100822.28;105289;1270;61148;-71
2022/01/17 04:38:38;;;;;;;30.30;16.30;;;;;;;-2.60;69.94;100831.71;106548;1270;74104;-69
2022/01/17 04:41:16;;;;;;;33.20;16.70;;;;;;;-2.61;69.81;100832.41;105202;1272;70548;-71
2022/01/17 04:43:58;;;;;;;31.40;18.00;;;;;;;-2.66;69.29;100830.44;105257;1272;70635;-71
2022/01/17 04:46:27;;;;;;;33.10;17.40;;;;;;;-2.75;68.70;100824.92;105250;1270;73419;-69
2022/01/17 04:48:58;;;;;;;70.70;34.30;;;;;;;-2.82;69.56;100825.73;105233;1270;61564;-70
2022/01/17 04:51:27;;;;;;;39.80;18.40;;;;;;;-2.89;69.88;100825.34;105337;1272;60976;-70
2022/01/17 04:54:18;;;;;;;34.90;17.30;;;;;;;-2.93;69.61;100825.73;105190;1272;75301;-69
2022/01/17 04:56:45;;;;;;;33.20;15.80;;;;;;;-2.99;70.01;100836.56;105239;1270;72310;-70
2022/01/17 04:59:14;;;;;;;27.30;14.50;;;;;;;-3.02;69.07;100834.05;105289;1271;71932;-72
2022/01/17 05:01:43;;;;;;;30.80;14.60;;;;;;;-3.10;69.58;100834.50;105286;1270;75434;-70
2022/01/17 05:04:12;;;;;;;33.10;15.40;;;;;;;-3.18;68.94;100828.49;105296;1272;59586;-71
2022/01/17 05:06:41;;;;;;;38.20;16.10;;;;;;;-3.26;69.44;100827.40;105348;1272;61665;-70
2022/01/17 05:09:10;;;;;;;33.60;15.80;;;;;;;-3.32;68.67;100837.71;105283;1270;75411;-71
2022/01/17 05:11:40;;;;;;;35.90;16.80;;;;;;;-3.39;69.34;100838.64;105262;1272;72430;-70
2022/01/17 05:14:10;;;;;;;36.50;16.40;;;;;;;-3.41;70.68;100836.13;105352;1272;69773;-72
2022/01/17 05:16:46;;;;;;;31.00;15.50;;;;;;;-3.43;70.87;100831.72;105300;1272;74440;-71
2022/01/17 05:22:03;;;;;;;31.50;15.80;;;;;;;-3.49;71.31;100829.41;105327;1272;60368;-71
2022/01/17 05:24:32;;;;;;;37.80;17.40;;;;;;;-3.53;70.77;100835.76;105365;1270;73992;-73
2022/01/17 05:27:02;;;;;;;43.90;18.00;;;;;;;-3.56;69.51;100843.63;105336;1270;71931;-72
2022/01/17 05:29:31;;;;;;;36.50;17.40;;;;;;;-3.61;68.81;100838.08;105321;1272;70420;-72
2022/01/17 05:32:00;;;;;;;61.40;33.10;;;;;;;-3.64;71.32;100830.11;105506;1269;72716;-74
2022/01/17 05:34:30;;;;;;;39.40;23.50;;;;;;;-3.63;71.84;100832.65;105418;1270;61890;-71
2022/01/17 05:36:59;;;;;;;43.20;24.10;;;;;;;-3.61;71.92;100835.36;105389;1272;61461;-72
2022/01/17 05:39:28;;;;;;;40.60;21.60;;;;;;;-3.60;72.24;100836.35;105501;1269;74710;-73
2022/01/17 05:41:57;;;;;;;43.70;20.50;;;;;;;-3.60;72.18;100831.25;105432;1273;70431;-72
2022/01/17 05:44:26;;;;;;;38.10;19.80;;;;;;;-3.63;71.28;100829.24;105413;1271;69865;-72
2022/01/17 05:46:55;;;;;;;39.90;19.80;;;;;;;-3.61;71.34;100833.48;105487;1272;72219;-71
2022/01/17 05:49:24;;;;;;;41.50;19.60;;;;;;;-3.64;71.87;100829.76;105443;1272;60177;-70
2022/01/17 05:51:53;;;;;;;43.00;19.40;;;;;;;-3.67;72.04;100829.48;105399;1272;59114;-75
2022/01/17 05:54:22;;;;;;;43.70;21.70;;;;;;;-3.70;72.59;100832.89;105481;1270;71872;-68
2022/01/17 05:56:52;;;;;;;36.70;20.10;;;;;;;-3.68;73.05;100836.63;105290;1272;70978;-75
2022/01/17 05:59:21;;;;;;;47.10;21.10;;;;;;;-3.67;73.09;100834.22;105497;1270;69117;-76
2022/01/17 06:01:50;;;;;;;44.10;18.80;;;;;;;-3.62;71.99;100835.37;105441;1272;72636;-75
2022/01/17 06:04:20;;;;;;;41.40;19.20;;;;;;;-3.66;71.20;100831.66;105515;1270;60105;-72
2022/01/17 06:06:50;;;;;;;42.40;18.90;;;;;;;-3.68;71.99;100822.16;105491;1270;60808;-76
2022/01/17 06:09:19;;;;;;;38.90;18.50;;;;;;;-3.70;72.22;100824.56;105413;1272;73190;-72
2022/01/17 06:11:48;;;;;;;38.90;17.90;;;;;;;-3.72;71.79;100819.14;105311;1270;69096;-70
2022/01/17 06:14:18;;;;;;;35.50;18.20;;;;;;;-3.73;72.78;100813.36;105202;1272;71276;-70
2022/01/17 06:16:48;;;;;;;35.00;17.70;;;;;;;-3.74;72.33;100802.65;105290;1269;73228;-70
2022/01/17 06:19:17;;;;;;;29.30;12.00;;;;;;;-3.73;72.00;100808.26;105346;1270;60651;-71
2022/01/17 06:21:46;;;;;;;27.50;12.70;;;;;;;-3.68;71.32;100816.70;105424;1269;60594;-72
2022/01/17 06:24:17;;;;;;;53.30;25.20;;;;;;;-3.64;72.43;100816.50;105355;1270;71472;-71
2022/01/17 06:26:46;;;;;;;50.30;24.70;;;;;;;-3.66;71.77;100801.18;105480;1270;69853;-68
2022/01/17 06:29:16;;;;;;;50.30;21.90;;;;;;;-3.62;72.69;100797.91;105534;1270;69719;-70
2022/01/17 06:31:45;;;;;;;44.30;20.70;;;;;;;-3.58;72.12;100794.63;105459;1270;71375;-76
2022/01/17 06:34:14;;;;;;;46.80;21.10;;;;;;;-3.55;71.89;100780.96;105477;1270;61503;-74
2022/01/17 06:36:44;;;;;;;50.40;22.80;;;;;;;-3.50;71.87;100781.73;105523;1272;61553;-71
2022/01/17 06:39:13;;;;;;;60.80;26.10;;;;;;;-3.44;71.54;100773.50;105466;1271;74696;-72
2022/01/17 06:41:42;;;;;;;59.40;25.70;;;;;;;-3.39;71.80;100771.70;105364;1272;73278;-72
2022/01/17 06:44:10;;;;;;;61.00;25.60;;;;;;;-3.31;72.11;100766.33;105357;1272;71019;-72
2022/01/17 06:46:39;;;;;;;50.50;24.80;;;;;;;-3.24;71.81;100769.79;105357;1271;74883;-71
2022/01/17 06:49:09;;;;;;;58.50;27.10;;;;;;;-3.20;71.94;100770.94;105430;1272;60367;-72
2022/01/17 06:51:38;;;;;;;68.20;27.40;;;;;;;-3.14;71.28;100772.04;105445;1271;60336;-71
2022/01/17 06:54:07;;;;;;;71.60;29.10;;;;;;;-3.11;70.49;100771.98;105376;1271;73627;-69
2022/01/17 06:56:36;;;;;;;64.90;29.20;;;;;;;-3.06;71.23;100768.69;105319;1270;73330;-72
2022/01/17 06:59:05;;;;;;;69.50;29.40;;;;;;;-3.01;71.26;100761.61;105489;1270;69274;-71
2022/01/17 07:01:38;;;;;;;67.60;31.20;;;;;;;-2.92;70.73;100751.76;105334;1270;72592;-71
2022/01/17 07:04:08;;;;;;;;;;;;;;;-2.80;70.64;100744.23;105478;1273;60002;-69
2022/01/17 07:06:38;;;;;;;50.60;24.10;;;;;;;-2.75;70.33;100734.41;105491;1270;60581;-72
2022/01/17 07:09:16;;;;;;;70.90;32.00;;;;;;;-2.71;70.32;100721.06;105480;1272;73458;-71
2022/01/17 07:11:46;;;;;;;66.70;31.10;;;;;;;-2.72;70.99;100719.71;105443;1270;71868;-72
2022/01/17 07:14:15;;;;;;;67.40;32.10;;;;;;;-2.62;70.84;100714.77;105449;1270;70589;-71
2022/01/17 07:16:44;;;;;;;67.00;30.50;;;;;;;-2.48;70.35;100706.48;105555;1270;74488;-71
2022/01/17 07:19:13;;;;;;;57.50;28.10;;;;;;;-2.32;70.13;100704.14;105477;1270;61839;-72
2022/01/17 07:21:42;;;;;;;63.30;29.90;;;;;;;-2.20;69.52;100695.89;105447;1270;61486;-71
2022/01/17 07:24:31;;;;;;;60.30;29.40;;;;;;;-2.02;69.03;100722.48;105525;1270;76292;-71
2022/01/17 07:27:01;;;;;;;58.50;29.60;;;;;;;-1.78;69.19;100759.04;105353;1270;70951;-72
2022/01/17 07:29:31;;;;;;;58.60;28.10;;;;;;;-1.56;68.58;100796.64;105499;1270;69906;-71
2022/01/17 07:32:00;;;;;;;56.10;27.80;;;;;;;-1.34;67.17;100798.55;105439;1270;72547;-73
2022/01/17 07:34:29;;;;;;;53.10;26.30;;;;;;;-1.18;66.21;100794.78;105441;1270;60013;-72
2022/01/17 07:36:59;;;;;;;51.90;27.60;;;;;;;-1.20;65.55;100795.34;105465;1270;61950;-72
2022/01/17 07:39:28;;;;;;;76.60;34.90;;;;;;;-1.01;66.26;100786.03;105413;1270;72522;-70
2022/01/17 07:41:57;;;;;;;53.40;27.10;;;;;;;-0.87;66.64;100762.94;105325;1273;72179;-71
2022/01/17 07:44:29;;;;;;;61.60;26.80;;;;;;;-0.75;64.53;100744.86;105343;1270;70817;-70
2022/01/17 07:47:00;;;;;;;57.40;27.70;;;;;;;-0.58;64.96;100729.39;105384;1269;72551;-72
2022/01/17 07:49:30;;;;;;;59.80;26.30;;;;;;;-0.41;66.17;100706.67;105324;1270;60028;-71
2022/01/17 07:52:05;;;;;;;64.70;28.10;;;;;;;-0.25;64.59;100696.67;105318;1270;60998;-72
2022/01/17 07:54:47;;;;;;;77.80;32.30;;;;;;;-0.13;64.65;100699.06;105168;1272;73334;-72
2022/01/17 07:57:16;;;;;;;69.30;30.20;;;;;;;0.05;64.43;100689.64;105333;1270;69844;-70
2022/01/17 07:59:45;;;;;;;63.50;27.10;;;;;;;0.12;64.13;100687.20;105287;1270;70779;-70
2022/01/17 08:02:14;;;;;;;67.00;31.70;;;;;;;0.13;61.29;100689.24;105293;1270;74616;-72
2022/01/17 08:04:43;;;;;;;57.70;26.90;;;;;;;0.25;61.49;100705.81;105293;1270;60403;-74
2022/01/17 08:07:15;;;;;;;64.20;26.90;;;;;;;0.49;62.89;100729.61;105343;1270;61491;-72
2022/01/17 08:09:49;;;;;;;60.50;25.80;;;;;;;0.61;58.41;100756.33;105319;1270;72766;-73
2022/01/17 08:12:18;;;;;;;58.50;27.40;;;;;;;0.74;56.21;100768.27;105338;1270;70928;-71
2022/01/17 08:14:47;;;;;;;59.00;24.70;;;;;;;0.87;57.27;100778.01;105417;1270;68915;-74
2022/01/17 08:17:16;;;;;;;53.90;24.20;;;;;;;0.92;55.84;100773.04;105292;1273;73003;-71
2022/01/17 08:19:47;;;;;;;54.30;26.10;;;;;;;0.98;54.84;100754.13;105385;1270;60674;-74
2022/01/17 08:22:16;;;;;;;62.60;25.60;;;;;;;1.05;52.93;100743.13;105221;1272;61890;-74
2022/01/17 08:24:45;;;;;;;60.50;25.00;;;;;;;1.13;53.54;100722.27;105277;1272;75702;-69
2022/01/17 08:27:14;;;;;;;52.70;25.10;;;;;;;1.47;53.64;100704.63;105363;1272;73729;-75
2022/01/17 08:29:44;;;;;;;54.80;24.80;;;;;;;1.54;51.04;100680.54;105332;1270;70392;-71
2022/01/17 08:32:33;;;;;;;51.80;22.70;;;;;;;1.89;50.94;100678.95;105315;1270;75522;-71
2022/01/17 08:35:02;;;;;;;49.20;24.10;;;;;;;2.06;50.83;100677.45;105382;1270;59525;-70
2022/01/17 08:37:31;;;;;;;46.60;21.70;;;;;;;2.18;50.41;100662.21;105398;1270;61801;-70
2022/01/17 08:40:06;;;;;;;44.30;18.50;;;;;;;2.32;53.62;100641.54;105316;1270;73096;-70
2022/01/17 08:42:36;;;;;;;42.60;21.90;;;;;;;2.42;50.79;100643.91;105354;1270;72589;-74
2022/01/17 08:45:12;;;;;;;46.40;22.60;;;;;;;2.34;50.46;100630.64;105348;1270;69253;-72
2022/01/17 08:48:01;;;;;;;44.60;20.30;;;;;;;2.26;50.59;100628.05;105334;1270;72772;-71
2022/01/17 08:50:30;;;;;;;47.80;21.20;;;;;;;2.28;51.68;100620.22;105374;1270;59546;-72
2022/01/17 08:53:00;;;;;;;51.50;23.40;;;;;;;2.30;51.86;100609.84;105420;1272;62302;-72
2022/01/17 08:55:29;;;;;;;49.50;23.30;;;;;;;2.27;51.94;100605.48;107559;1271;73575;-71
2022/01/17 08:57:59;;;;;;;52.50;24.30;;;;;;;2.35;51.92;100623.55;105420;1271;72599;-70
2022/01/17 09:00:31;;;;;;;56.90;27.30;;;;;;;2.48;50.63;100616.17;105312;1270;69773;-69
2022/01/17 09:03:21;;;;;;;48.40;23.70;;;;;;;2.48;49.47;100602.59;105276;1272;75615;-73
2022/01/17 09:05:55;;;;;;;58.40;24.20;;;;;;;2.39;50.92;100599.00;105431;1272;59717;-72
2022/01/17 09:08:28;;;;;;;56.50;26.70;;;;;;;2.37;50.76;100585.81;105304;1272;60669;-72
2022/01/17 09:10:58;;;;;;;50.10;24.30;;;;;;;2.43;50.30;100577.16;105316;1275;74122;-73
2022/01/17 09:13:27;;;;;;;50.20;23.90;;;;;;;2.60;52.53;100565.13;105485;1272;69804;-72
2022/01/17 09:15:56;;;;;;;47.30;22.70;;;;;;;2.72;52.61;100559.65;105473;1272;68812;-71
2022/01/17 09:18:26;;;;;;;54.30;25.60;;;;;;;2.77;52.08;100545.16;105406;1273;73292;-73
2022/01/17 09:20:56;;;;;;;49.60;24.50;;;;;;;2.92;52.76;100543.81;105403;1272;61269;-73
2022/01/17 09:23:26;;;;;;;48.10;23.70;;;;;;;3.00;51.26;100535.04;105486;1272;59079;-71
2022/01/17 09:25:55;;;;;;;44.00;20.80;;;;;;;3.08;51.46;100529.35;105458;1272;75131;-71
2022/01/17 09:28:24;;;;;;;49.40;21.80;;;;;;;3.19;50.45;100528.87;105430;1272;74024;-73
2022/01/17 09:30:53;;;;;;;43.30;20.50;;;;;;;3.21;50.49;100529.65;105433;1272;72369;-71
2022/01/17 09:33:22;;;;;;;48.30;25.00;;;;;;;3.35;50.16;100521.26;105467;1272;72639;-71
2022/01/17 09:35:52;;;;;;;45.90;24.60;;;;;;;3.34;49.69;100507.88;105430;1272;60342;-70
2022/01/17 09:38:22;;;;;;;57.60;25.50;;;;;;;3.37;49.27;100511.84;105511;1270;59896;-75
2022/01/17 09:40:51;;;;;;;49.60;21.60;;;;;;;3.44;49.77;100511.03;105517;1269;75243;-72
2022/01/17 09:43:40;;;;;;;43.80;20.10;;;;;;;3.52;49.02;100508.43;105441;1270;70445;-71
2022/01/17 09:46:11;;;;;;;37.30;18.70;;;;;;;3.66;49.14;100498.45;105375;1270;70723;-73
2022/01/17 09:48:46;;;;;;;42.00;20.30;;;;;;;3.78;47.56;100494.81;105409;1270;73495;-69
2022/01/17 09:51:51;;;;;;;41.00;17.80;;;;;;;3.96;48.92;100481.05;105343;1273;60441;-71
2022/01/17 09:54:21;;;;;;;34.60;18.00;;;;;;;4.04;47.26;100476.52;105459;1270;59889;-73
2022/01/17 09:56:53;;;;;;;37.60;18.50;;;;;;;4.21;48.26;100474.08;105424;1270;74622;-73
2022/01/17 09:59:23;;;;;;;34.40;18.00;;;;;;;4.47;49.03;100461.41;105429;1269;71809;-74
2022/01/17 10:01:52;;;;;;;33.70;18.10;;;;;;;4.59;48.84;100458.39;105411;1270;70188;-73
2022/01/17 10:04:21;;;;;;;29.50;12.80;;;;;;;4.68;47.90;100455.33;105474;1270;71596;-73
2022/01/17 10:06:55;;;;;;;25.70;13.80;;;;;;;4.85;47.00;100445.29;105354;1273;59538;-74
2022/01/17 10:09:27;;;;;;;28.80;16.10;;;;;;;4.96;46.95;100432.64;105486;1270;62197;-74
2022/01/17 10:12:11;;;;;;;33.70;16.70;;;;;;;4.92;46.28;100425.94;105351;1270;73488;-73
2022/01/17 10:15:04;;;;;;;24.90;13.10;;;;;;;4.96;47.59;100414.48;105363;1272;70582;-72
2022/01/17 10:17:43;;;;;;;20.50;10.00;;;;;;;5.13;45.78;100409.08;105362;1272;71374;-69
2022/01/17 10:20:16;;;;;;;20.60;10.40;;;;;;;5.15;45.52;100392.61;105422;1271;74508;-75
2022/01/17 10:22:55;;;;;;;15.40;8.00;;;;;;;5.27;45.50;100395.41;105397;1272;59701;-73
2022/01/17 10:25:57;;;;;;;12.10;6.50;;;;;;;5.40;45.09;100391.05;105434;1270;60670;-74
2022/01/17 10:29:07;;;;;;;18.90;8.60;;;;;;;5.50;44.76;100385.80;105374;1270;72618;-73
2022/01/17 10:36:52;;;;;;;16.30;8.40;;;;;;;5.77;44.93;100360.13;105229;1272;75695;-73
2022/01/17 10:39:21;;;;;;;15.40;8.10;;;;;;;5.83;45.31;100360.96;105186;1270;62026;-71
2022/01/17 10:41:51;;;;;;;11.80;6.20;;;;;;;5.90;44.53;100353.14;105252;1270;61152;-71
2022/01/17 10:44:38;;;;;;;12.30;7.40;;;;;;;6.00;44.51;100336.27;105259;1270;74837;-72
2022/01/17 10:47:26;;;;;;;11.30;6.60;;;;;;;6.11;44.81;100327.66;105301;1272;71614;-73
2022/01/17 10:50:01;;;;;;;13.10;6.00;;;;;;;6.22;44.34;100322.55;105316;1270;70792;-71
2022/01/17 10:52:44;;;;;;;14.10;7.30;;;;;;;6.33;43.35;100317.33;105336;1270;73579;-74
2022/01/17 10:55:34;;;;;;;11.40;6.70;;;;;;;6.38;43.73;100302.73;105353;1273;60817;-75
2022/01/17 10:58:13;;;;;;;12.10;5.90;;;;;;;6.37;43.18;100297.79;105318;1272;60663;-74
2022/01/17 11:00:46;;;;;;;10.90;6.40;;;;;;;6.34;43.63;100293.27;105353;1271;72652;-71
2022/01/17 11:03:19;;;;;;;13.80;6.70;;;;;;;6.38;43.17;100287.31;105326;1270;71675;-74
2022/01/17 11:05:52;;;;;;;;;;;;;;;6.40;43.30;100271.14;105337;1270;71378;-76
2022/01/17 11:08:25;;;;;;;9.50;3.70;;;;;;;6.46;43.23;100266.27;105355;1271;74383;-75
2022/01/17 11:11:01;;;;;;;12.60;6.80;;;;;;;6.57;42.71;100256.55;105276;1270;59681;-76
2022/01/17 11:13:35;;;;;;;11.90;6.10;;;;;;;6.62;42.49;100254.14;105437;1270;60014;-70
2022/01/17 11:16:07;;;;;;;;;;;;;;;6.64;42.33;100244.87;105403;1272;73940;-73
2022/01/17 11:18:37;;;;;;;10.50;5.80;;;;;;;6.72;42.59;100242.48;105428;1270;71724;-73
2022/01/17 11:21:16;;;;;;;7.30;4.70;;;;;;;6.86;42.18;100239.29;105354;1271;69678;-74
2022/01/17 11:23:48;;;;;;;10.80;5.30;;;;;;;7.10;40.99;100238.58;105359;1270;74553;-72
2022/01/17 11:26:18;;;;;;;7.80;4.30;;;;;;;7.13;40.53;100234.80;105310;1272;60120;-73
2022/01/17 11:28:54;;;;;;;9.60;4.90;;;;;;;7.28;40.21;100229.81;105320;1272;60665;-70
2022/01/17 11:31:24;;;;;;;13.90;5.90;;;;;;;7.31;40.66;100233.58;105278;1272;74108;-74
2022/01/17 11:33:54;;;;;;;10.90;4.90;;;;;;;7.41;41.04;100227.70;105338;1272;73431;-74
2022/01/17 11:36:24;;;;;;;10.60;5.40;;;;;;;7.53;40.35;100221.73;105296;1272;71320;-70
2022/01/17 11:38:59;;;;;;;8.90;4.00;;;;;;;7.49;40.59;100224.81;105353;1270;73723;-73
2022/01/17 11:41:34;;;;;;;3.10;2.00;;;;;;;7.51;39.31;100218.38;105304;1272;60690;-71
2022/01/17 11:44:07;;;;;;;5.50;3.70;;;;;;;7.39;39.01;100208.11;105308;1271;61247;-74
2022/01/17 11:46:51;;;;;;;8.10;4.40;;;;;;;7.43;39.37;100199.52;105223;1270;73765;-73
2022/01/17 11:49:35;;;;;;;4.70;2.30;;;;;;;7.49;38.91;100185.77;105275;1270;71722;-72
2022/01/17 11:52:10;;;;;;;4.10;2.50;;;;;;;7.55;38.59;100169.59;105309;1270;70827;-72